Parker, WA (98939)

10:34 PM PST on January 25, 2015 (GMT -0800)
Sunnyslope Ranch | Change Station
CLOSE
Current Station
Personal Weather Station
Location: Wapato, WA
Elevation: 1023 ft
Nearby Weather Stations
Active Advisory: Dense Fog Advisory Active Notice: Record Report

Elev 1023 ft 46.48 °N, 120.36 °W | Updated 1 second ago

Overcast
Overcast
37.0 °F
Feels Like 37 °F
N
0.0
Wind Variable Wind from North
Gusts 0.0 mph

Today
High -- | Low -- °F
--% Chance of Precip.
Yesterday
High -- | Low -- °F
Precip. -- in
7:33 AM 4:55 PM
Waxing Crescent, 40% visible
Pressure 30.19 in
Visibility 0.5 miles
Clouds
Windchill 37 °F
Dew Point 37 °F
Humidity 99%
Rainfall 0.01 in
Snow Depth Not available.
UV 0.0 out of 12
Pollen 4.00 out of 12
Air Quality Not available.
Flu Activity Not available.
METAR KYKM 260553Z AUTO 22004KT 1/2SM R27/2200V2400FT FG VV002 03/03 A3017 RMK AO2 SLP224 T00330028 10056 20033 55001

More Conditions Fewer Conditions

Pressure 30.19 in
Visibility 0.5 miles
Clouds
Windchill 37 °F
Dew Point 37 °F
Humidity 99%
Rainfall 0.01 in
Snow Depth Not available.
UV 0.0 out of 12
Pollen 4.00 out of 12
Air Quality Not available.
Flu Activity Not available.
METAR KYKM 260553Z AUTO 22004KT 1/2SM R27/2200V2400FT FG VV002 03/03 A3017 RMK AO2 SLP224 T00330028 10056 20033 55001

More Conditions Fewer Conditions

10-Day Weather Forecast

Almanac

Astronomy

Jan. 25, 2015 Rise Set
Actual Time
Civil Twilight
Nautical Twilight
Astronomical Twilight
Moon
Length of Visible Light
Length of Day
Tomorrow will be .
, % of the Moon is Illuminated

Today's Extremes

State Highs State Lows

Community

WunderPhotos

Upload Photos

1,790,157 photos uploaded!

WunderBlogs® & News

Nearby

Air Quality

  Air Quality AQ Index Pollutant
Not available.

Snow Depth

Station Depth Elevation

Earthquake Activity

City Distance Mag. Time & Date
Minimum magnitude displayed is 2.5.

Coastal Water Temperatures

Place Temperature

Nearby Weather Stations